Pearl, Mississippi
Current Conditions -  °F | °C
As of 12:54 PM on Monday 22 Dec 2014 (Local Time) from KJAN Reporting Station
Haze Haze  
Wind Chill: 59°   Ceiling: 300
Heat Index: 59°   Visibility: 2.5mi
Dew Point: 57°   Wind: 5mph
Humidity: 93%   Direction: 140°SE
Pressure: 29.72"   Gusts: NA
Location:  32.2996°N, 90.1428°W
Report Text: KJAN 221854Z 14004KT 2 1/2SM BR OVC003 15/14 A2972 RMK AO2 SLP062 T01500139
Loading
Personal Weather Stations






























Interactive Weather Map New forecast layout! Learn more

10-Day Weather Forecast

Advertisements
Track Severe Weather on mobile